Terminal Aerodrome Forecast
Issued by NWS Charleston, WV

Current Version | Previous Version | Text Only | Print | Product List | Glossary Off
Versions: 1 2 3 4 5 6 7 8 9 10 11 12 13 14 15 16 17 18 19 20 21 22 23 24 25 26 27

000
FTUS41 KRLX 141100
TAFCRW
TAF
KCRW 141125Z 1412/1512 18010G15KT P6SM BKN250
     FM141500 20015G23KT P6SM BKN080
     FM141900 22013G20KT P6SM SHRA VCTS OVC040CB
     FM142300 19009G14KT P6SM OVC035
     FM150200 18008KT P6SM SHRA OVC025
     FM150400 18008KT P6SM SHRA OVC020
     FM150600 20008KT P6SM SHRA OVC015
     FM150900 24007KT P6SM SHRA OVC015
     FM151100 28012G18KT P6SM SHRA OVC015=

USA.gov is the U.S. government's official web portal to all federal, state and local government web resources and services.